Archival Weather

Vermilion Rgnl

Danville, Illinois (KDNV)

Report from: Tuesday, March 26, 2024 3:15 PM CDT
Current time: Sunday, July 14, 2024 6:49 AM CDT

Current weather – Weather history – Daily summaries
Weather forecast

Temperature9.4°C (48.9°F)
Wind chill4.8°C (40.6°F)
Dew point2.8°C (37.0°F)
Winds 26 kts (13.4 m/s, 29.9 mph) West-Southwest (250°)
Wind gusts 32 kts (16.5 m/s, 36.8 mph)
Visibility10 mi. (16.1 km)
Clouds Ceiling: Broken clouds 2,900 ft. (884 m)
Broken clouds 3,300 ft. (1,006 m)
Altimeter29.65 in.Hg (1004 mB)
Relative humidity63 %
Density altitude-246 ft. (-75 m)
Remarks Fully automated report
Automated weather observing station with precipitation discriminator
Flight conditions Marginal Visual Meteorological Conditions
Raw dataKDNV 262015Z AUTO 25026G32KT 10SM BKN029 BKN033 09/03 A2965 RMK AO2 T00940028
An error has occurred. This application may no longer respond until reloaded. Reload 🗙